RJTX weather

Yokosuka Heliport
Tōkyō Prefecture, Japan

Public forecast

Using degrees Celsius for public forecast. Weather courtesy of forecast.io.

METAR (pilot weather report)

Closest report is Kisarazu Airport, 13.0 nm (24.1 km) ENE. Retrieved 2019/04/24 23:32 UTC (11 minutes ago):

RJTK 242332Z VRB01KT 9999 -SHRA SCT012 BKN015 BKN080 20/18 Q1004 RMK 3CU012 5CU015 5AC080 A2966

TAF (pilot weather forecast)

Forecast is more than 12 hours old.

Closest forecast is Atsugi Naval Air Facility, 15.0 nm (27.7 km) NW. Retrieved 2011/10/31 12:54 UTC (7 years ago):

TAF TAF RJTA 311100Z 3112/0112 36012KT 9999 FEW030CU TEMPO 0103/0109 07008KT